Latest Weather Observations for Wynyard

IDT60801

Issued at 9:21 am EDT Thursday 21 October 2021 (issued every 10 minutes, with the page automatically refreshed every 10 minutes)

About weather observations | Map of weather stations | Latest weather observations for TAS | Other Formats
Station Details ID: 091107 Name: WYNYARD AIRPORT Lat: -41.00 Lon: 145.73 Height: 12.0 m
Data from the previous 72 hours. | See also: Recent months at Wynyard
Date/Time
EDT
Temp
°C
App
Temp
°C
Dew
Point
°C
Rel
Hum
%
Delta-T
°C
Wind Press
QNH
hPa
Press
MSL
hPa
Rain since
9am
mm
Dir  Spd
km/h
Gust
km/h
Spd
kts
Gust
kts
21/09:00am 13.6 8.4 11.7 88 1.0 E 30 39 16 21 1018.5 1018.5 0.0
21/08:30am 13.4 8.6 11.5 88 1.0 E 28 39 15 21 1018.5 1018.5 0.0
21/08:00am 13.3 7.7 11.5 89 1.0 ESE 32 41 17 22 1018.3 1018.3 0.0
21/07:30am 12.9 7.7 11.5 91 0.7 E 30 43 16 23 1018.5 1018.5 0.0
21/07:00am 12.9 7.8 11.8 93 0.6 E 30 43 16 23 1018.2 1018.2 0.0
21/06:30am 12.7 7.1 11.6 93 0.6 E 32 44 17 24 1018.1 1018.1 0.0
21/06:16am 12.6 6.8 11.5 93 0.6 E 33 44 18 24 1018.1 1018.1 0.0
21/06:00am 12.6 7.0 11.5 93 0.6 E 32 41 17 22 1018.1 1018.1 0.0
21/05:53am 12.6 6.9 11.3 92 0.7 E 32 43 17 23 1018.2 1018.2 0.0
21/05:30am 12.7 7.0 11.1 90 0.8 E 32 43 17 23 1018.1 1018.1 0.0
21/05:00am 12.5 6.5 10.9 90 0.8 E 33 44 18 24 1018.2 1018.2 0.0
21/04:30am 12.6 6.5 10.5 87 1.1 E 33 46 18 25 1018.7 1018.7 0.0
21/04:00am 12.5 6.6 10.4 87 1.1 E 32 43 17 23 1019.0 1019.0 0.0
21/03:30am 12.4 5.9 10.5 88 1.0 E 35 46 19 25 1018.8 1018.8 0.0
21/03:00am 12.5 6.7 10.9 90 0.8 E 32 43 17 23 1019.1 1019.1 0.0
21/02:30am 12.6 6.8 10.8 89 0.9 E 32 43 17 23 1019.5 1019.5 0.0
21/02:00am 12.7 7.3 10.9 89 0.9 E 30 37 16 20 1020.0 1020.0 0.0
21/01:30am 12.8 7.9 11.2 90 0.8 E 28 37 15 20 1020.8 1020.8 0.0
21/01:00am 12.5 7.6 11.2 92 0.7 E 28 39 15 21 1021.1 1021.1 0.0
21/12:38am 12.6 7.2 10.8 89 0.9 E 30 48 16 26 1021.2 1021.2 0.0
21/12:30am 12.7 6.7 10.8 88 1.0 E 33 46 18 25 1021.1 1021.1 0.0
21/12:00am 12.6 6.1 10.5 87 1.1 E 35 46 19 25 1021.1 1021.1 0.0
 
Date/Time
EDT
Temp
°C
App
Temp
°C
Dew
Point
°C
Rel
Hum
%
Delta-T
°C
Wind Press
QNH
hPa
Press
MSL
hPa
Rain since
9am
mm
Dir  Spd
km/h
Gust
km/h
Spd
kts
Gust
kts
20/11:30pm 12.6 5.6 9.8 83 1.4 E 37 50 20 27 1021.2 1021.2 0.0
20/11:00pm 12.6 5.6 10.1 85 1.3 E 37 48 20 26 1021.6 1021.6 0.0
20/10:50pm 12.6 6.0 10.1 85 1.3 E 35 54 19 29 1021.6 1021.6 0.0
20/10:31pm 12.5 6.3 10.0 85 1.3 E 33 46 18 25 1021.7 1021.7 0.0
20/10:30pm 12.6 6.4 10.1 85 1.3 E 33 46 18 25 1021.7 1021.7 0.0
20/10:00pm 12.6 5.6 9.8 83 1.4 ENE 37 50 20 27 1021.8 1021.8 0.0
20/09:30pm 12.7 6.6 9.7 82 1.5 ENE 32 48 17 26 1022.1 1022.1 0.0
20/09:00pm 12.6 7.2 9.4 81 1.6 ENE 28 41 15 22 1022.1 1022.1 0.0
20/08:30pm 12.6 6.2 8.7 77 1.9 ENE 32 46 17 25 1022.0 1022.0 0.0
20/08:00pm 12.7 6.1 7.8 72 2.4 ENE 32 50 17 27 1021.7 1021.7 0.0
20/07:51pm 12.8 6.2 7.9 72 2.4 ENE 32 50 17 27 1021.7 1021.7 0.0
20/07:30pm 12.8 6.8 8.7 76 2.0 ENE 30 41 16 22 1021.8 1021.8 0.0
20/07:00pm 13.2 8.0 8.7 74 2.2 ENE 26 41 14 22 1021.9 1021.9 0.0
20/06:30pm 13.4 7.6 8.0 70 2.7 ENE 28 41 15 22 1021.9 1021.9 0.0
20/06:00pm 13.8 7.7 8.2 69 2.8 ENE 30 41 16 22 1022.0 1022.0 0.0
20/05:30pm 14.2 8.1 8.4 68 2.9 ENE 30 41 16 22 1022.2 1022.2 0.0
20/05:00pm 14.2 8.3 7.7 65 3.2 ENE 28 37 15 20 1022.3 1022.3 0.0
20/04:30pm 14.5 8.6 7.3 62 3.5 ENE 28 41 15 22 1022.5 1022.5 0.0
20/04:00pm 14.9 9.2 8.4 65 3.3 ENE 28 35 15 19 1022.8 1022.8 0.0
20/03:30pm 14.6 8.9 8.5 67 3.1 ENE 28 43 15 23 1023.2 1023.2 0.0
20/03:00pm 14.5 8.3 8.0 65 3.2 ENE 30 44 16 24 1023.7 1023.7 0.0
20/02:30pm 14.5 9.0 9.1 70 2.8 ENE 28 39 15 21 1024.3 1024.3 0.0
20/02:00pm 14.3 7.9 8.5 68 2.9 ENE 32 43 17 23 1024.5 1024.5 0.0
20/01:30pm 14.1 8.1 8.7 70 2.7 ENE 30 39 16 21 1024.7 1024.7 0.0
20/01:00pm 14.9 9.3 10.1 73 2.5 E 30 41 16 22 1025.0 1025.0 0.0
20/12:30pm 13.9 7.9 8.5 70 2.7 E 30 41 16 22 1025.4 1025.4 0.0
20/12:00pm 13.6 7.5 8.2 70 2.7 E 30 41 16 22 1025.8 1025.8 0.0
20/11:30am 13.5 7.3 7.9 69 2.8 E 30 41 16 22 1026.0 1026.0 0.0
20/11:00am 13.1 6.1 6.7 65 3.1 E 33 46 18 25 1025.9 1025.9 0.0
20/10:30am 12.7 5.5 6.1 64 3.1 E 33 43 18 23 1025.9 1025.9 0.0
20/10:00am 12.6 5.6 6.0 64 3.1 E 32 43 17 23 1026.1 1026.1 0.0
20/09:30am 12.0 5.2 5.2 63 3.1 E 30 41 16 22 1026.0 1026.0 0.0
20/09:00am 11.5 4.6 4.5 62 3.1 E 30 39 16 21 1026.1 1026.1 0.2
20/08:30am 11.1 5.2 4.1 62 3.1 E 24 32 13 17 1026.5 1026.5 0.2
20/08:00am 10.5 5.3 3.8 63 2.9 ESE 20 30 11 16 1026.6 1026.6 0.2
20/07:30am 8.8 4.8 3.0 67 2.5 ESE 13 17 7 9 1026.2 1026.2 0.2
20/07:00am 7.1 3.0 2.4 72 1.9 SE 13 15 7 8 1026.5 1026.5 0.2
20/06:30am 6.1 2.0 2.0 75 1.7 SE 13 17 7 9 1026.5 1026.5 0.2
20/06:00am 6.0 1.8 1.7 74 1.7 SSE 13 15 7 8 1026.6 1026.6 0.2
20/05:30am 6.2 2.1 2.1 75 1.7 SE 13 17 7 9 1026.6 1026.6 0.2
20/05:00am 6.1 2.0 2.4 77 1.5 SE 13 17 7 9 1026.6 1026.6 0.2
20/04:30am 6.8 2.8 3.1 77 1.5 SE 13 19 7 10 1026.7 1026.7 0.2
20/04:00am 6.9 3.0 3.2 77 1.5 SSE 13 17 7 9 1027.0 1027.0 0.2
20/03:30am 6.6 3.0 2.9 77 1.5 SSE 11 15 6 8 1027.1 1027.1 0.2
20/03:00am 7.8 3.8 2.7 70 2.1 ESE 13 19 7 10 1027.2 1027.2 0.2
20/02:30am 8.5 4.2 3.4 70 2.2 SE 15 19 8 10 1027.1 1027.1 0.2
20/02:00am 9.3 5.3 4.7 73 2.0 SE 15 20 8 11 1027.3 1027.3 0.2
20/01:30am 10.4 4.8 5.4 71 2.3 E 24 35 13 19 1027.5 1027.5 0.2
20/01:00am 11.2 5.2 5.5 68 2.6 E 26 39 14 21 1027.8 1027.8 0.2
20/12:30am 11.5 6.4 5.8 68 2.7 ENE 22 37 12 20 1027.7 1027.7 0.2
20/12:00am 11.6 6.2 6.3 70 2.5 ENE 24 35 13 19 1027.9 1027.9 0.2
 
Date/Time
EDT
Temp
°C
App
Temp
°C
Dew
Point
°C
Rel
Hum
%
Delta-T
°C
Wind Press
QNH
hPa
Press
MSL
hPa
Rain since
9am
mm
Dir  Spd
km/h
Gust
km/h
Spd
kts
Gust
kts
19/11:30pm 11.6 7.0 6.3 70 2.5 ENE 20 30 11 16 1028.1 1028.1 0.2
19/11:00pm 11.8 6.7 6.1 68 2.7 ENE 22 32 12 17 1027.9 1027.9 0.2
19/10:30pm 12.1 7.0 6.2 67 2.8 ENE 22 30 12 16 1028.1 1028.1 0.2
19/10:00pm 12.4 8.0 6.5 67 2.8 NE 19 26 10 14 1027.5 1027.5 0.2
19/09:30pm 12.4 8.5 6.9 69 2.6 NE 17 24 9 13 1027.4 1027.4 0.2
19/09:00pm 12.5 8.1 7.2 70 2.5 NE 20 28 11 15 1027.1 1027.1 0.2
19/08:30pm 12.6 8.4 7.3 70 2.6 NE 19 26 10 14 1026.8 1026.8 0.2
19/08:00pm 12.7 8.8 7.2 69 2.6 NNE 17 22 9 12 1026.5 1026.5 0.2
19/07:30pm 12.8 8.9 7.3 69 2.7 NNE 17 20 9 11 1026.4 1026.4 0.2
19/07:00pm 12.9 9.9 7.6 70 2.6 N 13 19 7 10 1026.3 1026.3 0.2
19/06:30pm 13.7 10.4 7.9 68 2.9 NNE 15 20 8 11 1025.8 1025.8 0.2
19/06:00pm 13.8 10.6 6.9 63 3.3 N 13 17 7 9 1025.8 1025.8 0.2
19/05:30pm 14.1 10.3 7.4 64 3.3 N 17 20 9 11 1025.5 1025.5 0.2
19/05:00pm 14.8 11.0 7.6 62 3.5 NNE 17 22 9 12 1025.0 1025.0 0.2
19/04:30pm 14.9 10.9 6.7 58 4.0 NNE 17 24 9 13 1024.9 1024.9 0.2
19/04:00pm 15.2 10.8 7.3 59 3.9 NNE 20 24 11 13 1024.6 1024.6 0.2
19/03:30pm 15.2 10.8 6.7 57 4.1 NE 19 26 10 14 1024.5 1024.5 0.2
19/03:00pm 15.8 11.6 8.3 61 3.8 NE 20 26 11 14 1024.6 1024.6 0.2
19/02:30pm 15.0 9.6 6.3 56 4.2 NE 24 32 13 17 1024.5 1024.5 0.2
19/02:00pm 14.9 9.3 7.0 59 3.8 ENE 26 35 14 19 1024.4 1024.4 0.2
19/01:30pm 14.6 8.4 6.2 57 4.0 ENE 28 39 15 21 1024.2 1024.2 0.0
19/01:00pm 14.4 8.6 6.3 58 3.9 ENE 26 37 14 20 1024.2 1024.2 0.0
19/12:30pm 15.0 8.9 6.8 58 4.0 E 28 39 15 21 1024.2 1024.2 0.0
19/12:00pm 13.9 7.2 5.8 58 3.8 E 30 39 16 21 1024.4 1024.4 0.0
19/11:30am 14.0 7.5 6.6 61 3.6 E 30 43 16 23 1024.4 1024.4 0.0
19/11:00am 14.1 8.0 6.5 60 3.6 E 28 37 15 20 1024.3 1024.3 0.0
19/10:30am 13.5 8.0 6.1 61 3.5 E 24 32 13 17 1024.2 1024.2 0.0
19/10:00am 12.6 7.6 4.6 58 3.6 E 20 28 11 15 1024.1 1024.1 0.0
19/09:30am 12.3 8.2 4.3 58 3.6 E 15 19 8 10 1023.9 1023.9 0.0
19/09:00am 11.9 9.2 3.9 58 3.6 E 7 15 4 8 1023.7 1023.7 0.0
19/08:30am 10.8 7.9 4.9 67 2.7 SE 9 13 5 7 1023.2 1023.2 0.0
19/08:00am 8.8 7.8 5.5 80 1.5 CALM 0 0 0 0 1022.9 1022.9 0.0
19/07:30am 7.5 5.2 5.0 84 1.1 WNW 6 9 3 5 1022.3 1022.3 0.0
19/07:00am 6.1 3.6 4.6 90 0.6 W 7 11 4 6 1021.6 1021.6 0.0
19/06:30am 5.2 2.2 4.2 93 0.4 WNW 9 11 5 6 1021.0 1021.0 0.0
19/06:00am 5.3 2.3 4.3 93 0.4 W 9 13 5 7 1020.6 1020.6 0.0
19/05:30am 5.2 2.2 4.2 93 0.4 W 9 11 5 6 1020.0 1020.0 0.0
19/05:00am 6.6 5.1 5.2 91 0.6 W 2 6 1 3 1019.4 1019.4 0.0
19/04:30am 6.0 3.0 4.0 87 0.8 WSW 9 11 5 6 1019.2 1019.2 0.0
19/04:00am 7.9 5.7 5.2 83 1.2 SSW 6 7 3 4 1018.9 1018.9 0.0
19/03:30am 8.9 6.7 5.5 79 1.5 SSW 6 9 3 5 1018.7 1018.7 0.0
19/03:00am 9.3 6.7 6.2 81 1.4 SW 9 13 5 7 1018.5 1018.5 0.0
19/02:30am 9.5 7.4 5.9 78 1.7 S 6 7 3 4 1018.3 1018.3 0.0
19/02:00am 9.9 7.7 6.1 77 1.8 SSW 7 9 4 5 1018.2 1018.2 0.0
19/01:30am 10.0 7.4 6.2 77 1.8 SW 9 13 5 7 1017.9 1017.9 0.0
19/01:00am 9.9 7.4 6.4 79 1.6 SSW 9 11 5 6 1017.4 1017.4 0.0
19/12:30am 9.9 7.0 6.3 78 1.7 SSW 11 15 6 8 1017.0 1017.0 0.0
19/12:00am 10.3 8.3 6.1 75 1.9 S 6 9 3 5 1016.6 1016.7 0.0
 
Date/Time
EDT
Temp
°C
App
Temp
°C
Dew
Point
°C
Rel
Hum
%
Delta-T
°C
Wind Press
QNH
hPa
Press
MSL
hPa
Rain since
9am
mm
Dir  Spd
km/h
Gust
km/h
Spd
kts
Gust
kts
18/11:30pm 10.2 7.7 6.4 77 1.8 SSW 9 15 5 8 1016.2 1016.3 0.0
18/11:00pm 10.1 7.6 6.4 78 1.7 SSW 9 11 5 6 1015.8 1015.9 0.0
18/10:30pm 9.5 6.5 6.0 79 1.6 WSW 11 13 6 7 1015.4 1015.5 0.0
18/10:00pm 10.2 7.5 5.8 74 2.0 WSW 9 15 5 8 1014.9 1015.0 0.0
18/09:30pm 10.6 6.9 6.2 74 2.0 WSW 15 22 8 12 1014.3 1014.4 0.0
18/09:00pm 10.9 6.3 6.3 73 2.2 WSW 20 28 11 15 1013.7 1013.8 0.0
18/08:30pm 11.2 7.5 6.3 72 2.3 WSW 15 20 8 11 1013.4 1013.5 0.0
18/08:00pm 11.5 7.4 6.2 70 2.5 WSW 17 20 9 11 1012.9 1013.0 0.0
18/07:30pm 12.1 6.6 5.9 66 2.9 WSW 24 32 13 17 1012.4 1012.5 0.0
18/07:00pm 12.5 5.8 5.7 63 3.2 WSW 30 41 16 22 1012.0 1012.1 0.0
18/06:30pm 12.8 8.6 7.5 70 2.6 WSW 19 26 10 14 1011.5 1011.5 0.0
18/06:00pm 13.0 7.7 6.8 66 3.0 WSW 24 30 13 16 1011.0 1011.0 0.0
18/05:30pm 13.5 6.9 5.9 60 3.6 WSW 30 44 16 24 1010.9 1010.9 0.0
18/05:00pm 16.0 10.3 5.0 48 5.2 WSW 24 35 13 19 1010.2 1010.2 0.0
18/04:30pm 15.7 9.8 5.9 52 4.7 WSW 26 33 14 18 1010.0 1010.0 0.0
18/04:00pm 15.5 9.0 6.5 55 4.4 WSW 30 39 16 21 1010.1 1010.1 0.0
18/03:46pm 14.9 8.4 6.7 58 4.0 WSW 30 48 16 26 1010.1 1010.1 0.0
18/03:30pm 17.2 11.6 5.5 46 5.6 W 24 41 13 22 1009.7 1009.7 0.0
18/03:00pm 16.6 10.9 6.7 52 4.9 WSW 26 37 14 20 1009.8 1009.8 0.0
18/02:30pm 15.9 10.0 7.7 58 4.1 WSW 28 39 15 21 1009.8 1009.8 0.0
18/02:00pm 15.8 10.9 8.3 61 3.8 SW 24 35 13 19 1009.8 1009.8 0.0
18/01:30pm 15.2 10.1 9.3 68 3.0 WSW 26 39 14 21 1009.9 1009.9 0.0
18/01:19pm 13.5 7.5 7.1 65 3.1 WSW 28 46 15 25 1010.0 1010.0 0.0
18/01:00pm 15.2 12.2 11.8 80 1.8 W 19 22 10 12 1009.9 1009.9 0.0
18/12:31pm 14.8 9.0 8.1 64 3.4 W 28 56 15 30 1009.8 1009.8 0.0
18/12:30pm 16.0 10.5 7.7 58 4.2 WNW 26 46 14 25 1009.9 1009.9 0.0
18/12:00pm 16.3 11.5 8.8 61 3.9 W 24 30 13 16 1010.0 1010.0 0.0
18/11:30am 15.4 11.6 9.7 69 3.0 WNW 20 30 11 16 1010.5 1010.5 0.0
18/11:00am 14.8 11.7 11.6 81 1.7 NW 19 26 10 14 1010.7 1010.7 0.0
18/10:53am 13.5 9.9 10.5 82 1.6 WNW 20 28 11 15 1010.7 1010.7 0.0
18/10:40am 12.9 11.2 11.1 89 0.9 WNW 11 19 6 10 1011.0 1011.0 0.0
18/10:30am 11.9 10.4 10.6 92 0.7 WNW 9 15 5 8 1011.1 1011.1 0.0
18/10:11am 11.8 8.6 9.9 88 1.0 WNW 17 22 9 12 1011.2 1011.2 0.0
18/10:02am 11.9 8.6 9.6 86 1.2 WNW 17 22 9 12 1011.2 1011.2 0.0
18/10:00am 11.8 8.5 9.4 85 1.2 WNW 17 20 9 11 1011.2 1011.2 0.0
18/09:51am 12.1 9.0 8.8 80 1.6 NW 15 20 8 11 1011.2 1011.2 0.0
18/09:36am 12.2 9.5 8.9 80 1.6 NW 13 20 7 11 1011.1 1011.1 0.0
18/09:30am 12.4 9.4 9.4 82 1.5 NW 15 19 8 10 1011.1 1011.1 0.0

Other formats

Comma delimited format used in spreadsheet applications
http://www.bom.gov.au/fwo/IDT60801/IDT60801.95957.axf

JavaScript Object Notation format (JSON) in row-major order
http://www.bom.gov.au/fwo/IDT60801/IDT60801.95957.json

Data quality

Most of these data are generated automatically and are frequently updated. Quality checks on data are not normally performed. It is possible for incorrect values to appear. Refer to information at About Latest Weather Observations and please check the disclaimer before using these data.